Ana Sayfa
METAR-TAF:

METAR-TAF

Havaalanları :

Cam Ranh Uluslararası Havaalanı

Cam Ranh, Vietnam

Enlem: 11-59-53N, Boylam: 109-13-10E, yükseklik: 12 m

Güncel hava durumu gözlemi

Rapor saat 23:00 UTC de 39 dakika önce yapıldı.
Rüzgar batıdan 4 kt
Sıcaklık 30°C
Nem 70%
Basınç 1004 hPa
Görüş mesafesi 10 km veya daha fazla
1500 ft yükseklikte az bulutlu

METAR: VVCR 182300Z 27004KT 9999 FEW015 30/24 Q1004 NOSIG

Saat: 06:39 (23:39 UTC)

Tahmin

Rapor saat 17:00 UTC de 6 saat ve 39 dakika önce yapıldı.
Ayın 18'si saat 18 UTC'den ayın 19'si saat 18 UTC'ye kadar geçerli Tahmin
Rüzgar değişken yönden 3 kt
Görüş mesafesi 10 km veya daha fazla
1500 ft yükseklikte az bulutlu
5000 ft yükseklikte parçalı bulutlu
Dönüşüyor
ayın 19'si saat 02 UTC'den ayın 19'si saat 03 UTC'ye kadar
Rüzgar güneydoğudan 10 kt

TAF: VVCR 181700Z 1818/1918 VRB03KT 9999 FEW015 SCT050 BECMG 1902/1903 13010KT

4.000'den fazla havaalanı için hava durumu gözlemleri ve tahminleri (METAR ve TAF raporları).

Kullanılabilir istasyonlar harita üzerinde sarı ve kırmızı noktalarla gösterilir.

İstasyonun adını görmek için fareyi noktanın üzerinde gezdirin.

Sonrasında hava gözlem ve tahminlerini görmek için tıklayın.

Haritayı değiştirmek için: yaklaştırmak için siyah artı işaretli yeşil düğmeye ve uzaklaştırmak için de eksi işaretli düğmeye hızla tıklayın; bitişik haritalar için yeşil okları kullanın.


METAR-TAF: